Time;durP1;ratioP1;P1;durP2;ratioP2;P2;SDS_P1;SDS_P2;PMS_P1;PMS_P2;Temp;Humidity;BMP_temperature;BMP_pressure;BME280_temperature;BME280_humidity;BME280_pressure;Samples;Min_cycle;Max_cycle;Signal;HPM_P1;HPM_P2
2022/11/21 00:00:50;;;;;;;16.60;9.53;;;-1.90;99.90;-2.30;99410.00;;;;4891256;28;93133;-64
2022/11/21 00:03:16;;;;;;;15.90;8.80;;;-1.70;99.90;-2.30;99415.00;;;;4893178;28;94254;-64
2022/11/21 00:05:45;;;;;;;12.57;8.27;;;-1.90;99.90;-2.30;99405.00;;;;4893309;28;94056;-64
2022/11/21 00:08:14;;;;;;;14.27;9.03;;;-1.90;99.90;-2.20;99393.00;;;;4897909;28;92814;-64
2022/11/21 00:10:41;;;;;;;15.43;9.23;;;-1.80;99.90;-2.20;99395.00;;;;4895446;28;101484;-64
2022/11/21 00:13:18;;;;;;;12.43;7.20;;;-1.80;99.90;-2.20;99379.00;;;;4896468;28;94193;-65
2022/11/21 00:15:45;;;;;;;12.13;7.70;;;-1.80;99.90;-2.20;99392.00;;;;4897321;28;113961;-64
2022/11/21 00:18:11;;;;;;;11.07;6.13;;;-1.70;99.90;-2.10;99380.00;;;;4895185;28;92956;-63
2022/11/21 00:20:38;;;;;;;14.13;7.57;;;-1.70;99.90;-2.10;99379.00;;;;4900978;28;93248;-65
2022/11/21 00:23:04;;;;;;;14.57;7.97;;;-1.70;99.90;-2.10;99375.00;;;;4898764;28;93429;-64
2022/11/21 00:25:30;;;;;;;13.37;8.50;;;-1.80;99.90;-2.00;99361.00;;;;4898232;28;93718;-63
2022/11/21 00:27:55;;;;;;;13.17;7.63;;;-1.60;99.90;-2.00;99359.00;;;;4894768;28;106106;-64
2022/11/21 00:30:21;;;;;;;11.40;8.33;;;-1.60;99.90;-2.00;99345.00;;;;4892834;28;98673;-65
2022/11/21 00:32:47;;;;;;;17.13;7.50;;;-1.60;99.90;-1.90;99344.00;;;;4893241;28;122041;-64
2022/11/21 00:35:12;;;;;;;12.70;6.90;;;-1.50;99.90;-1.90;99334.00;;;;4893017;28;120295;-63
2022/11/21 00:37:38;;;;;;;11.43;6.70;;;-1.50;99.90;-1.80;99324.00;;;;4892186;28;111255;-64
2022/11/21 00:40:05;;;;;;;11.50;6.90;;;-1.50;99.90;-1.80;99330.00;;;;4892701;28;108560;-63
2022/11/21 00:42:30;;;;;;;12.23;7.50;;;-1.40;99.90;-1.80;99316.00;;;;4894617;28;93893;-63
2022/11/21 00:44:56;;;;;;;13.60;6.93;;;-1.40;99.90;-1.70;99316.00;;;;4895049;28;113542;-64
2022/11/21 00:47:22;;;;;;;12.70;7.40;;;-1.40;99.90;-1.70;99313.00;;;;4893884;28;110729;-64
2022/11/21 00:49:47;;;;;;;16.70;7.73;;;-1.30;99.90;-1.60;99314.00;;;;4899497;28;109239;-62
2022/11/21 00:52:13;;;;;;;10.63;6.50;;;-1.30;99.90;-1.60;99314.00;;;;4893182;28;122927;-64
2022/11/21 00:54:39;;;;;;;9.67;6.10;;;-1.30;99.90;-1.50;99310.00;;;;4891624;28;124182;-63
2022/11/21 00:57:05;;;;;;;12.73;7.30;;;-1.10;99.90;-1.50;99308.00;;;;4893976;28;109933;-63
2022/11/21 00:59:30;;;;;;;13.07;7.23;;;-1.10;99.90;-1.40;99300.00;;;;4893530;28;109166;-63
2022/11/21 01:01:56;;;;;;;11.97;7.10;;;-1.00;99.90;-1.40;99291.00;;;;4893304;28;93517;-63
2022/11/21 01:04:21;;;;;;;13.10;7.93;;;-0.90;99.90;-1.40;99294.00;;;;4895664;28;122479;-63
2022/11/21 01:06:47;;;;;;;12.13;7.00;;;-1.10;99.90;-1.40;99289.00;;;;4898217;28;109636;-63
2022/11/21 01:09:13;;;;;;;11.97;7.53;;;-0.90;99.90;-1.40;99289.00;;;;4892402;28;110602;-62
2022/11/21 01:11:38;;;;;;;11.60;7.53;;;-1.00;99.90;-1.30;99277.00;;;;4892598;28;122758;-63
2022/11/21 01:14:04;;;;;;;13.50;6.67;;;-1.00;99.90;-1.30;99274.00;;;;4897745;28;121160;-63
2022/11/21 01:16:31;;;;;;;12.13;6.47;;;-0.90;99.90;-1.30;99267.00;;;;4888901;28;92829;-64
2022/11/21 01:18:57;;;;;;;11.40;6.50;;;-1.00;99.90;-1.30;99263.00;;;;4889808;28;93950;-63
2022/11/21 01:21:29;;;;;;;15.07;8.00;;;-0.90;99.90;-1.30;99257.00;;;;4891423;28;93555;-64
2022/11/21 01:23:57;;;;;;;11.70;7.50;;;-1.00;99.90;-1.30;99259.00;;;;4893039;28;97911;-62
2022/11/21 01:26:25;;;;;;;13.43;8.47;;;-0.80;99.90;-1.30;99251.00;;;;4896019;28;96793;-63
2022/11/21 01:28:51;;;;;;;17.50;8.27;;;-0.80;99.90;-1.20;99242.00;;;;4896259;28;101151;-63
2022/11/21 01:31:21;;;;;;;11.00;7.47;;;-0.80;99.90;-1.20;99247.00;;;;4896536;28;117346;-61
2022/11/21 01:33:48;;;;;;;11.70;8.13;;;-0.90;99.90;-1.20;99242.00;;;;4900239;28;92802;-63
2022/11/21 01:36:22;;;;;;;13.33;8.10;;;-0.80;99.90;-1.10;99245.00;;;;4897752;28;92334;-62
2022/11/21 01:38:54;;;;;;;12.43;7.60;;;-0.80;99.90;-1.10;99235.00;;;;4896332;28;97100;-62
2022/11/21 01:41:27;;;;;;;10.87;7.50;;;-0.80;99.90;-1.10;99229.00;;;;4899229;28;93095;-63
2022/11/21 01:43:52;;;;;;;11.67;7.97;;;-0.80;99.90;-1.10;99219.00;;;;4897546;28;93915;-63
2022/11/21 01:46:22;;;;;;;19.07;7.90;;;-0.70;99.90;-1.10;99222.00;;;;4895778;28;109004;-63
2022/11/21 01:49:07;;;;;;;13.07;7.63;;;-0.70;99.90;-1.10;99212.00;;;;4895059;28;109219;-61
2022/11/21 01:51:57;;;;;;;14.80;9.07;;;-0.70;99.90;-1.10;99219.00;;;;4895714;28;92959;-62
2022/11/21 01:54:39;;;;;;;13.60;9.00;;;-0.60;99.90;-1.10;99214.00;;;;4898125;28;106410;-63
2022/11/21 01:57:21;;;;;;;11.77;8.63;;;-0.70;99.90;-1.10;99207.00;;;;4897890;28;92818;-63
2022/11/21 02:00:02;;;;;;;12.93;9.13;;;-0.70;99.90;-1.10;99210.00;;;;4894996;28;92761;-62
2022/11/21 02:02:33;;;;;;;14.33;9.27;;;-0.60;99.90;-1.00;99207.00;;;;4895294;28;93210;-63
2022/11/21 02:05:00;;;;;;;18.63;9.80;;;-0.60;99.90;-1.00;99200.00;;;;4895940;28;111401;-63
2022/11/21 02:07:29;;;;;;;15.67;8.83;;;-0.80;99.90;-1.00;99199.00;;;;4898510;28;92922;-63
2022/11/21 02:10:00;;;;;;;16.10;10.70;;;-0.70;99.90;-1.00;99210.00;;;;4899683;28;97652;-63
2022/11/21 02:12:38;;;;;;;17.77;9.37;;;-0.10;99.90;-1.00;99203.00;;;;4895037;28;113912;-63
2022/11/21 02:15:05;;;;;;;20.07;10.73;;;-0.90;99.90;-1.00;99205.00;;;;4894167;28;93330;-63
2022/11/21 02:17:31;;;;;;;16.83;9.97;;;-0.60;99.90;-1.00;99198.00;;;;4898368;28;103518;-62
2022/11/21 02:20:04;;;;;;;15.47;9.53;;;-0.60;99.90;-1.00;99195.00;;;;4895529;28;93027;-62
2022/11/21 02:23:12;;;;;;;17.37;10.07;;;-0.60;99.90;-1.00;99197.00;;;;4898572;28;93428;-61
2022/11/21 02:25:41;;;;;;;18.03;10.03;;;-0.70;99.90;-0.90;99182.00;;;;4909486;28;93479;-63
2022/11/21 02:28:11;;;;;;;18.27;10.77;;;-0.60;99.90;-0.90;99174.00;;;;4892338;28;92452;-62
2022/11/21 02:30:39;;;;;;;21.27;11.83;;;-0.50;99.90;-0.90;99175.00;;;;4893549;28;99068;-63
2022/11/21 02:33:06;;;;;;;21.20;10.87;;;-0.60;99.90;-0.90;99165.00;;;;4897195;28;93736;-63
2022/11/21 02:35:32;;;;;;;16.83;11.03;;;-0.60;99.90;-0.90;99167.00;;;;4894622;28;94242;-64
2022/11/21 02:38:21;;;;;;;18.43;10.50;;;-0.60;99.90;-0.80;99170.00;;;;4892554;28;93169;-63
2022/11/21 02:41:25;;;;;;;19.50;10.63;;;-0.40;99.90;-0.80;99163.00;;;;4892010;28;101605;-64
2022/11/21 02:43:56;;;;;;;17.77;9.03;;;-0.40;99.90;-0.70;99164.00;;;;4894317;28;94274;-64
2022/11/21 02:46:21;;;;;;;16.47;11.70;;;-0.50;99.90;-0.70;99155.00;;;;4896647;28;113325;-63
2022/11/21 02:48:47;;;;;;;22.93;11.37;;;-0.40;99.90;-0.70;99146.00;;;;4890878;28;110414;-64
2022/11/21 02:51:13;;;;;;;17.97;10.90;;;-0.30;99.90;-0.70;99154.00;;;;4893221;28;109023;-63
2022/11/21 02:53:38;;;;;;;20.27;11.67;;;0.70;99.90;-0.70;99143.00;;;;4894540;28;122427;-63
2022/11/21 02:56:04;;;;;;;21.67;11.73;;;-0.40;99.90;-0.70;99147.00;;;;4894183;28;121997;-63
2022/11/21 02:58:29;;;;;;;24.20;11.87;;;-0.40;99.90;-0.70;99151.00;;;;4892955;28;113300;-63
2022/11/21 03:00:55;;;;;;;24.10;11.93;;;-0.30;99.90;-0.60;99146.00;;;;4892206;28;108897;-63
2022/11/21 03:03:21;;;;;;;21.93;11.70;;;0.70;99.90;-0.70;99138.00;;;;4890878;28;93756;-65
2022/11/21 03:05:47;;;;;;;20.17;11.67;;;-0.20;99.90;-0.60;99139.00;;;;4898302;28;121424;-63
2022/11/21 03:08:13;;;;;;;17.83;11.77;;;-0.40;99.90;-0.70;99137.00;;;;4897682;28;94426;-62
2022/11/21 03:10:38;;;;;;;17.73;11.67;;;-0.30;99.90;-0.70;99137.00;;;;4896351;28;107728;-64
2022/11/21 03:13:04;;;;;;;21.97;11.50;;;-0.40;99.90;-0.70;99129.00;;;;4893530;28;124186;-62
2022/11/21 03:15:32;;;;;;;17.03;10.77;;;-0.30;99.90;-0.70;99124.00;;;;4892425;28;122548;-63
2022/11/21 03:18:02;;;;;;;21.43;11.93;;;-0.30;99.90;-0.70;99137.00;;;;4898828;28;92155;-63
2022/11/21 03:20:33;;;;;;;19.67;11.13;;;0.50;99.90;-0.70;99129.00;;;;4897700;28;92895;-64
2022/11/21 03:22:59;;;;;;;21.50;11.67;;;-0.40;99.90;-0.70;99118.00;;;;4897958;28;93943;-63
2022/11/21 03:25:25;;;;;;;19.87;12.13;;;-0.40;99.90;-0.70;99120.00;;;;4890359;28;94063;-63
2022/11/21 03:27:53;;;;;;;23.10;13.40;;;-0.40;99.90;-0.70;99115.00;;;;4897505;28;92869;-62
2022/11/21 03:30:21;;;;;;;21.70;12.47;;;-1.30;99.90;-0.70;99113.00;;;;4892036;28;94806;-63
2022/11/21 03:32:46;;;;;;;20.93;11.63;;;-0.30;99.90;-0.70;99115.00;;;;4896478;28;93533;-64
2022/11/21 03:35:12;;;;;;;17.33;10.93;;;-0.40;99.90;-0.60;99117.00;;;;4890105;28;122818;-63
2022/11/21 03:37:38;;;;;;;20.00;11.43;;;-0.30;99.90;-0.60;99113.00;;;;4894505;28;93172;-63
2022/11/21 03:40:04;;;;;;;21.00;11.53;;;-0.30;99.90;-0.60;99123.00;;;;4896139;28;92950;-63
2022/11/21 03:42:30;;;;;;;22.77;11.50;;;-0.30;99.90;-0.60;99102.00;;;;4893818;28;114139;-63
2022/11/21 03:44:56;;;;;;;24.27;12.70;;;-0.10;99.90;-0.60;99102.00;;;;4894307;28;92901;-63
2022/11/21 03:47:24;;;;;;;14.40;10.43;;;-0.30;99.90;-0.60;99111.00;;;;4895714;28;93140;-63
2022/11/21 03:49:50;;;;;;;18.27;11.17;;;-0.20;99.90;-0.50;99103.00;;;;4895054;28;93904;-62
2022/11/21 03:52:15;;;;;;;23.30;11.57;;;0.00;99.90;-0.50;99103.00;;;;4893587;28;124084;-64
2022/11/21 03:54:41;;;;;;;18.57;11.53;;;-0.20;99.90;-0.50;99093.00;;;;4894875;28;121447;-61
2022/11/21 03:57:07;;;;;;;21.00;12.33;;;-0.20;99.90;-0.50;99089.00;;;;4887671;28;110395;-63
2022/11/21 03:59:32;;;;;;;25.87;13.40;;;-0.10;99.90;-0.50;99093.00;;;;4894132;28;108329;-63
2022/11/21 04:01:58;;;;;;;20.63;12.17;;;-0.10;99.90;-0.50;99090.00;;;;4895803;28;120991;-63
2022/11/21 04:04:24;;;;;;;16.90;9.60;;;-0.20;99.90;-0.50;99083.00;;;;4889237;28;105419;-65
2022/11/21 04:06:49;;;;;;;18.77;11.50;;;-0.20;99.90;-0.50;99097.00;;;;4891735;28;92624;-65
2022/11/21 04:09:15;;;;;;;19.07;11.63;;;-0.20;99.90;-0.40;99092.00;;;;4893122;28;107589;-65
2022/11/21 04:11:41;;;;;;;18.17;10.50;;;-0.10;99.90;-0.40;99090.00;;;;4891355;28;123493;-65
2022/11/21 04:14:06;;;;;;;18.77;12.10;;;-0.10;99.90;-0.40;99081.00;;;;4892860;28;123104;-65
2022/11/21 04:16:32;;;;;;;23.20;11.63;;;-0.10;99.90;-0.40;99083.00;;;;4894087;28;112952;-65
2022/11/21 04:18:58;;;;;;;19.87;12.47;;;-0.10;99.90;-0.30;99079.00;;;;4895529;28;107616;-65
2022/11/21 04:21:23;;;;;;;28.00;13.70;;;0.00;99.90;-0.30;99091.00;;;;4891657;28;123199;-65
2022/11/21 04:23:49;;;;;;;19.00;11.70;;;0.00;99.90;-0.30;99085.00;;;;4894718;28;123095;-66
2022/11/21 04:26:14;;;;;;;23.67;12.13;;;0.00;99.90;-0.30;99069.00;;;;4894506;28;112794;-65
2022/11/21 04:28:40;;;;;;;16.40;10.90;;;0.00;99.90;-0.20;99074.00;;;;4896742;28;109527;-65
2022/11/21 04:31:07;;;;;;;24.37;12.20;;;0.10;99.90;-0.10;99071.00;;;;4893714;28;121745;-65
2022/11/21 04:33:33;;;;;;;14.77;9.53;;;0.20;99.90;-0.10;99073.00;;;;4895191;28;93218;-65
2022/11/21 04:35:59;;;;;;;18.97;11.33;;;0.20;99.90;-0.10;99069.00;;;;4893510;28;112948;-66
2022/11/21 04:38:25;;;;;;;17.87;10.47;;;0.30;99.90;0.00;99071.00;;;;4890781;28;109008;-66
2022/11/21 04:40:50;;;;;;;15.73;10.30;;;0.30;99.90;0.00;99067.00;;;;4893573;28;121617;-66
2022/11/21 04:43:16;;;;;;;15.80;9.13;;;0.20;99.90;0.00;99061.00;;;;4892169;28;123392;-66
2022/11/21 04:45:43;;;;;;;17.83;11.53;;;0.30;99.90;0.00;99073.00;;;;4893742;28;100814;-66
2022/11/21 04:48:10;;;;;;;14.53;10.83;;;0.40;99.90;0.10;99073.00;;;;4893619;28;92873;-66
2022/11/21 04:50:35;;;;;;;18.60;11.00;;;0.40;99.90;0.10;99074.00;;;;4895671;28;113234;-66
2022/11/21 04:53:01;;;;;;;21.23;10.43;;;0.30;99.90;0.20;99063.00;;;;4891928;28;120900;-66
2022/11/21 04:55:30;;;;;;;16.50;10.63;;;0.40;99.90;0.20;99060.00;;;;4896315;28;93948;-66
2022/11/21 04:57:56;;;;;;;19.30;11.33;;;0.60;99.90;0.20;99059.00;;;;4895116;28;92803;-67
2022/11/21 05:00:22;;;;;;;20.67;10.27;;;0.50;99.90;0.20;99056.00;;;;4896006;28;108326;-66
2022/11/21 05:02:48;;;;;;;14.83;10.60;;;0.40;99.90;0.30;99066.00;;;;4897146;28;99345;-66
2022/11/21 05:05:14;;;;;;;17.70;10.83;;;0.50;99.90;0.30;99056.00;;;;4897589;28;112201;-67
2022/11/21 05:07:39;;;;;;;16.83;9.73;;;0.60;99.90;0.30;99058.00;;;;4900661;28;92835;-66
2022/11/21 05:10:06;;;;;;;16.87;11.50;;;0.60;99.90;0.30;99057.00;;;;4897845;28;123963;-66
2022/11/21 05:15:18;;;;;;;19.50;10.53;;;0.60;99.90;0.30;99050.00;;;;4901050;28;93103;-67
2022/11/21 05:17:43;;;;;;;20.40;11.50;;;0.60;99.90;0.30;99043.00;;;;4912868;28;92984;-67
2022/11/21 05:20:10;;;;;;;18.93;9.90;;;0.60;99.90;0.30;99050.00;;;;4895711;28;120403;-66
2022/11/21 05:22:36;;;;;;;20.13;9.70;;;0.60;99.90;0.40;99038.00;;;;4895980;28;92941;-66
2022/11/21 05:25:02;;;;;;;17.80;10.70;;;0.50;99.90;0.40;99055.00;;;;4895162;28;110825;-66
2022/11/21 05:27:28;;;;;;;18.80;11.20;;;0.90;99.90;0.40;99063.00;;;;4893021;28;94081;-66
2022/11/21 05:29:54;;;;;;;14.50;10.10;;;0.10;99.90;0.40;99065.00;;;;4893105;28;122224;-66
2022/11/21 05:32:20;;;;;;;14.23;10.70;;;0.70;99.90;0.40;99050.00;;;;4895667;28;93965;-66
2022/11/21 05:34:46;;;;;;;17.07;9.33;;;0.80;99.90;0.40;99058.00;;;;4896079;28;113045;-67
2022/11/21 05:37:11;;;;;;;17.10;11.53;;;0.70;99.90;0.40;99060.00;;;;4894796;28;109955;-67
2022/11/21 05:39:37;;;;;;;15.93;9.80;;;0.70;99.90;0.50;99056.00;;;;4892181;28;120313;-66
2022/11/21 05:42:03;;;;;;;13.93;9.13;;;0.70;99.90;0.50;99062.00;;;;4893586;28;122063;-66
2022/11/21 05:44:28;;;;;;;22.30;11.20;;;0.80;99.90;0.50;99069.00;;;;4891656;28;99129;-67
2022/11/21 05:46:54;;;;;;;12.83;9.10;;;0.80;99.90;0.50;99066.00;;;;4893568;28;108315;-65
2022/11/21 05:49:20;;;;;;;15.20;9.60;;;0.80;99.90;0.50;99069.00;;;;4893796;28;121411;-65
2022/11/21 05:51:45;;;;;;;27.80;13.67;;;0.80;99.90;0.60;99073.00;;;;4892184;28;94005;-66
2022/11/21 05:54:15;;;;;;;19.37;12.77;;;0.80;99.90;0.60;99078.00;;;;4889028;28;109404;-65
2022/11/21 05:56:40;;;;;;;23.40;12.53;;;0.90;99.90;0.60;99070.00;;;;4893797;28;102196;-66
2022/11/21 05:59:09;;;;;;;24.50;11.73;;;0.90;99.90;0.60;99072.00;;;;4892389;28;96692;-65
2022/11/21 06:04:19;;;;;;;14.67;10.20;;;0.80;99.90;0.60;99076.00;;;;4893354;28;92808;-65
2022/11/21 06:06:45;;;;;;;20.73;12.63;;;0.90;99.90;0.60;99068.00;;;;4894779;28;101297;-65
2022/11/21 06:09:10;;;;;;;15.93;10.90;;;0.80;99.90;0.60;99086.00;;;;4896278;28;120195;-66
2022/11/21 06:11:36;;;;;;;16.37;10.10;;;0.90;99.90;0.60;99086.00;;;;4896921;28;104954;-66
2022/11/21 06:14:02;;;;;;;17.43;11.40;;;0.80;99.90;0.60;99085.00;;;;4892033;28;111460;-65
2022/11/21 06:16:27;;;;;;;20.13;11.80;;;0.90;99.90;0.60;99093.00;;;;4899358;28;93708;-65
2022/11/21 06:18:53;;;;;;;13.17;9.87;;;1.00;99.90;0.60;99093.00;;;;4899929;28;122705;-66
2022/11/21 06:21:22;;;;;;;18.47;10.37;;;0.90;99.90;0.60;99116.00;;;;4895762;28;93643;-65
2022/11/21 06:23:54;;;;;;;14.33;9.57;;;0.90;99.90;0.60;99100.00;;;;4899851;28;93183;-66
2022/11/21 06:26:23;;;;;;;14.57;10.07;;;1.00;99.90;0.60;99108.00;;;;4899991;28;100889;-66
2022/11/21 06:28:50;;;;;;;15.93;10.00;;;0.90;99.90;0.70;99114.00;;;;4892786;28;101225;-66
2022/11/21 06:31:22;;;;;;;15.87;10.50;;;0.90;99.90;0.70;99118.00;;;;4891868;28;93788;-66
2022/11/21 06:33:55;;;;;;;15.43;10.40;;;1.00;99.90;0.70;99129.00;;;;4895322;28;92060;-66
2022/11/21 06:36:21;;;;;;;20.40;11.50;;;1.00;99.90;0.70;99131.00;;;;4897445;28;101447;-66
2022/11/21 06:38:48;;;;;;;15.03;9.90;;;1.00;99.90;0.70;99143.00;;;;4893775;28;117550;-65
2022/11/21 06:41:17;;;;;;;23.33;9.90;;;1.10;99.90;0.60;99144.00;;;;4893805;28;112491;-65
2022/11/21 06:43:43;;;;;;;19.10;11.23;;;1.00;99.90;0.60;99146.00;;;;4893717;28;93031;-65
2022/11/21 06:46:09;;;;;;;18.37;11.20;;;1.00;99.90;0.60;99146.00;;;;4898819;28;92940;-65
2022/11/21 06:48:36;;;;;;;13.63;9.23;;;0.90;99.90;0.60;99153.00;;;;4893213;28;93691;-64
2022/11/21 06:51:08;;;;;;;15.83;10.83;;;0.90;99.90;0.60;99153.00;;;;4898831;28;93606;-65
2022/11/21 06:53:34;;;;;;;15.77;9.70;;;0.90;99.90;0.60;99152.00;;;;4910471;28;93983;-64
2022/11/21 06:56:00;;;;;;;19.90;10.10;;;0.90;99.90;0.60;99172.00;;;;4894999;28;93097;-65
2022/11/21 06:58:27;;;;;;;15.30;10.40;;;1.50;99.90;0.50;99166.00;;;;4895280;28;95096;-64
2022/11/21 07:00:54;;;;;;;15.00;9.07;;;1.00;99.90;0.50;99165.00;;;;4894119;28;93195;-65
2022/11/21 07:03:21;;;;;;;14.63;9.87;;;0.80;99.90;0.50;99174.00;;;;4890695;28;100765;-66
2022/11/21 07:05:47;;;;;;;15.10;9.33;;;0.70;99.90;0.50;99175.00;;;;4894900;28;93899;-65
2022/11/21 07:08:13;;;;;;;17.37;10.30;;;0.80;99.90;0.40;99180.00;;;;4892587;28;93777;-66
2022/11/21 07:10:39;;;;;;;21.00;11.50;;;0.80;99.90;0.40;99188.00;;;;4912264;28;121015;-65
2022/11/21 07:13:22;;;;;;;13.87;8.93;;;0.70;99.90;0.40;99199.00;;;;4895827;28;92617;-65
2022/11/21 07:15:51;;;;;;;11.73;8.80;;;0.70;99.90;0.40;99208.00;;;;4894904;28;92806;-65
2022/11/21 07:18:19;;;;;;;15.37;9.47;;;0.70;99.90;0.40;99211.00;;;;4898059;28;93101;-65
2022/11/21 07:20:45;;;;;;;17.77;10.40;;;0.70;99.90;0.40;99218.00;;;;4900095;28;93278;-65
2022/11/21 07:23:11;;;;;;;16.17;9.63;;;0.80;99.90;0.40;99227.00;;;;4895107;28;102287;-65
2022/11/21 07:25:38;;;;;;;19.17;10.67;;;0.70;99.90;0.40;99234.00;;;;4895372;28;92960;-65
2022/11/21 07:28:06;;;;;;;13.03;9.70;;;0.80;99.90;0.40;99233.00;;;;4895580;28;93243;-64
2022/11/21 07:30:32;;;;;;;9.23;8.23;;;0.70;99.90;0.40;99245.00;;;;4897596;28;93934;-64
2022/11/21 07:32:59;;;;;;;12.43;8.63;;;0.90;99.90;0.40;99243.00;;;;4895400;28;98217;-66
2022/11/21 07:35:26;;;;;;;18.07;9.47;;;0.70;99.90;0.40;99240.00;;;;4897996;28;93011;-66
2022/11/21 07:37:52;;;;;;;18.23;10.00;;;0.70;99.90;0.40;99247.00;;;;4892156;28;109435;-66
2022/11/21 07:40:19;;;;;;;14.10;9.53;;;0.80;99.90;0.40;99265.00;;;;4893114;28;93596;-66
2022/11/21 07:42:45;;;;;;;18.70;10.53;;;0.70;99.90;0.50;99276.00;;;;4895351;28;94343;-66
2022/11/21 07:45:12;;;;;;;16.50;8.67;;;0.80;99.90;0.40;99280.00;;;;4893963;28;99062;-66
2022/11/21 07:47:38;;;;;;;14.87;9.33;;;0.70;99.90;0.40;99298.00;;;;4896021;28;108584;-66
2022/11/21 07:50:05;;;;;;;19.23;9.70;;;0.80;99.90;0.40;99297.00;;;;4895337;28;122858;-65
2022/11/21 07:52:31;;;;;;;12.97;8.23;;;0.70;99.90;0.40;99297.00;;;;4893507;28;94416;-66
2022/11/21 07:54:57;;;;;;;12.77;9.67;;;0.70;99.90;0.40;99304.00;;;;4894302;28;108369;-66
2022/11/21 07:57:23;;;;;;;16.53;10.67;;;0.70;99.90;0.40;99308.00;;;;4893314;28;93751;-67
2022/11/21 07:59:49;;;;;;;15.33;9.60;;;0.70;99.90;0.30;99300.00;;;;4893059;28;120936;-66
2022/11/21 08:02:27;;;;;;;11.83;7.80;;;0.60;99.90;0.30;99309.00;;;;4894235;28;92794;-64
2022/11/21 08:04:53;;;;;;;19.37;9.37;;;0.60;99.90;0.30;99326.00;;;;4888855;28;92934;-64
2022/11/21 08:07:21;;;;;;;11.50;7.30;;;0.70;99.90;0.30;99325.00;;;;4890745;28;94451;-65
2022/11/21 08:09:47;;;;;;;12.47;8.10;;;0.60;99.90;0.30;99321.00;;;;4897294;28;92963;-65
2022/11/21 08:12:13;;;;;;;9.33;6.93;;;0.60;99.90;0.30;99328.00;;;;4892896;28;110704;-65
2022/11/21 08:14:39;;;;;;;11.53;8.13;;;0.60;99.90;0.30;99329.00;;;;4891050;28;97665;-65
2022/11/21 08:17:06;;;;;;;7.83;6.53;;;0.50;99.90;0.20;99334.00;;;;4892912;28;103647;-64
2022/11/21 08:19:31;;;;;;;14.40;7.53;;;0.50;99.90;0.20;99336.00;;;;4895581;28;94145;-64
2022/11/21 08:21:58;;;;;;;11.63;6.60;;;0.50;99.90;0.20;99334.00;;;;4896671;28;110761;-64
2022/11/21 08:24:23;;;;;;;11.23;7.80;;;0.60;99.90;0.20;99342.00;;;;4895367;28;93116;-65
2022/11/21 08:26:49;;;;;;;11.47;7.03;;;0.50;99.90;0.20;99343.00;;;;4897360;28;94007;-65
2022/11/21 08:29:15;;;;;;;13.23;8.13;;;1.40;99.90;0.20;99345.00;;;;4892924;28;122261;-65
2022/11/21 08:31:41;;;;;;;12.10;7.50;;;0.50;99.90;0.20;99356.00;;;;4893678;28;103641;-65
2022/11/21 08:34:07;;;;;;;9.33;7.00;;;0.50;99.90;0.20;99348.00;;;;4894386;28;92870;-66
2022/11/21 08:36:33;;;;;;;13.00;8.80;;;0.50;99.90;0.20;99355.00;;;;4891160;28;121604;-66
2022/11/21 08:38:59;;;;;;;10.00;7.43;;;0.50;99.90;0.30;99363.00;;;;4894288;28;120616;-66
2022/11/21 08:44:09;;;;;;;12.63;8.13;;;0.60;99.90;0.30;99362.00;;;;4893100;28;93800;-66
2022/11/21 08:46:36;;;;;;;10.13;7.30;;;0.60;99.90;0.30;99365.00;;;;4888621;28;111861;-65
2022/11/21 08:49:06;;;;;;;16.03;7.47;;;0.60;99.90;0.40;99371.00;;;;4892281;28;94053;-65
2022/11/21 08:51:32;;;;;;;13.70;8.60;;;0.60;99.90;0.40;99385.00;;;;4892595;28;97202;-65
2022/11/21 08:53:58;;;;;;;10.67;7.67;;;0.70;99.90;0.40;99391.00;;;;4891913;28;93320;-66
2022/11/21 08:56:24;;;;;;;14.77;8.17;;;0.70;99.90;0.30;99387.00;;;;4895616;28;93098;-65
2022/11/21 08:58:50;;;;;;;16.07;9.37;;;0.10;99.90;0.30;99391.00;;;;4894833;28;108902;-64
2022/11/21 09:01:15;;;;;;;8.07;7.20;;;0.70;99.90;0.30;99398.00;;;;4892863;28;111575;-64
2022/11/21 09:03:41;;;;;;;9.00;7.27;;;0.70;99.90;0.30;99398.00;;;;4892593;28;108292;-66
2022/11/21 09:06:07;;;;;;;17.17;8.27;;;0.70;99.90;0.30;99402.00;;;;4893147;28;120913;-66
2022/11/21 09:08:32;;;;;;;13.97;7.43;;;0.60;99.90;0.40;99399.00;;;;4892251;28;93892;-65
2022/11/21 09:11:06;;;;;;;11.23;7.27;;;0.60;99.90;0.40;99406.00;;;;4895727;28;110493;-65
2022/11/21 09:13:33;;;;;;;11.27;6.80;;;0.60;99.90;0.30;99405.00;;;;4895152;28;95745;-68
2022/11/21 09:18:44;;;;;;;8.43;5.87;;;0.60;99.90;0.30;99418.00;;;;4888947;28;93340;-65
2022/11/21 09:21:17;;;;;;;8.17;5.70;;;0.60;99.90;0.30;99434.00;;;;4894512;28;110365;-65
2022/11/21 09:23:43;;;;;;;11.07;6.63;;;0.70;99.90;0.30;99409.00;;;;4897660;28;92859;-65
2022/11/21 09:26:09;;;;;;;11.03;6.10;;;0.60;99.90;0.40;99418.00;;;;4891219;28;106876;-65
2022/11/21 09:28:35;;;;;;;7.20;5.80;;;0.70;99.90;0.30;99419.00;;;;4893422;28;92857;-66
2022/11/21 09:31:04;;;;;;;9.73;6.30;;;0.70;99.90;0.40;99438.00;;;;4909719;28;93159;-65
2022/11/21 09:33:30;;;;;;;11.13;5.80;;;0.60;99.90;0.40;99426.00;;;;4894850;28;93960;-64
2022/11/21 09:36:00;;;;;;;9.80;5.60;;;0.70;99.90;0.40;99437.00;;;;4892941;28;122410;-67
2022/11/21 09:38:28;;;;;;;9.30;6.93;;;0.80;99.90;0.40;99440.00;;;;4892827;28;93706;-66
2022/11/21 09:41:51;;;;;;;10.37;7.67;;;0.60;99.90;0.40;99431.00;;;;4897742;28;93074;-65
2022/11/21 09:44:57;;;;;;;13.20;6.60;;;0.70;99.90;0.40;99430.00;;;;4894427;28;93100;-65
2022/11/21 09:47:28;;;;;;;11.07;6.50;;;0.00;99.90;0.50;99431.00;;;;4897166;28;94047;-63
2022/11/21 09:50:03;;;;;;;13.47;6.63;;;1.80;99.90;0.50;99440.00;;;;4913135;28;93226;-61
2022/11/21 09:52:43;;;;;;;10.73;6.83;;;0.90;99.90;0.50;99441.00;;;;4900992;28;92092;-61
2022/11/21 09:55:34;;;;;;;8.47;6.03;;;0.80;99.90;0.50;99445.00;;;;4898624;28;92695;-61
2022/11/21 09:58:03;;;;;;;10.57;6.50;;;0.80;99.90;0.50;99449.00;;;;4897156;28;115912;-63
2022/11/21 10:00:30;;;;;;;9.07;5.70;;;1.50;99.90;0.50;99443.00;;;;4896235;28;116465;-61
2022/11/21 10:02:56;;;;;;;10.17;6.77;;;1.70;99.90;0.50;99454.00;;;;4893435;28;94109;-61
2022/11/21 10:05:54;;;;;;;10.20;6.73;;;0.90;99.90;0.50;99455.00;;;;4899660;28;109972;-61
2022/11/21 10:09:01;;;;;;;8.10;5.67;;;0.90;99.90;0.50;99461.00;;;;4912883;28;92839;-60
2022/11/21 10:12:35;;;;;;;8.57;6.47;;;0.80;99.90;0.60;99470.00;;;;4901216;28;93225;-62
2022/11/21 10:15:54;;;;;;;10.13;5.97;;;0.90;99.90;0.60;99459.00;;;;4866712;28;92963;-62
2022/11/21 10:18:44;;;;;;;12.37;8.20;;;0.90;99.90;0.70;99461.00;;;;4902172;28;94396;-61
2022/11/21 10:22:03;;;;;;;10.47;6.63;;;1.10;99.90;0.70;99468.00;;;;4903988;28;92410;-61
2022/11/21 10:24:43;;;;;;;10.93;7.80;;;1.10;99.90;0.80;99473.00;;;;4903883;28;98728;-61
2022/11/21 10:27:33;;;;;;;17.43;8.90;;;1.10;99.90;0.80;99469.00;;;;4913735;28;93300;-63
2022/11/21 10:30:18;;;;;;;12.90;7.07;;;1.10;99.90;0.80;99474.00;;;;4898939;28;94018;-63
2022/11/21 10:32:48;;;;;;;12.53;6.70;;;1.20;99.90;0.90;99475.00;;;;4904988;28;93257;-63
2022/11/21 10:35:22;;;;;;;8.27;7.33;;;1.20;99.90;0.80;99467.00;;;;4899490;28;93314;-65
2022/11/21 10:37:59;;;;;;;11.40;6.67;;;1.10;99.90;0.90;99475.00;;;;4895691;28;93352;-65
2022/11/21 10:40:37;;;;;;;8.90;6.43;;;1.10;99.90;0.90;99476.00;;;;4896850;28;92860;-64
2022/11/21 10:45:55;;;;;;;8.07;6.33;;;1.60;99.90;0.90;99474.00;;;;4910756;28;92774;-65
2022/11/21 10:48:21;;;;;;;8.43;5.33;;;1.20;99.90;1.00;99479.00;;;;4899503;28;109779;-63
2022/11/21 10:51:27;;;;;;;10.67;6.47;;;1.90;99.90;0.90;99478.00;;;;4900621;28;93132;-64
2022/11/21 10:57:19;;;;;;;9.70;5.80;;;1.20;99.90;1.00;99475.00;;;;4899578;28;93902;-64
2022/11/21 11:00:22;;;;;;;5.93;4.80;;;1.30;99.90;1.00;99486.00;;;;4896368;28;108777;-66
2022/11/21 11:02:54;;;;;;;7.80;5.37;;;1.70;99.90;1.10;99486.00;;;;4896094;28;92811;-64
2022/11/21 11:05:35;;;;;;;10.07;6.27;;;1.30;99.90;1.10;99488.00;;;;4899607;28;106306;-64
2022/11/21 11:08:07;;;;;;;8.30;5.70;;;1.50;99.90;1.20;99494.00;;;;4900982;28;93965;-66
2022/11/21 11:10:42;;;;;;;5.60;5.07;;;1.40;99.90;1.20;99478.00;;;;4901033;28;92875;-67
2022/11/21 11:16:10;;;;;;;10.20;5.47;;;1.50;99.90;1.10;99486.00;;;;4892957;28;92294;-65
2022/11/21 11:18:50;;;;;;;8.87;5.67;;;1.30;99.90;1.10;99491.00;;;;4902422;28;92894;-66
2022/11/21 11:21:21;;;;;;;8.00;6.27;;;1.50;99.90;1.10;99499.00;;;;4895552;28;92940;-66